CheckWX is a tool to help pilots better visualize weather data.  It is not intended as a substitute for an official pre-flight weather briefing.

03:54:55 UTC

KHZR METAR
False River Regional Airport
New Roads, Louisiana, USA
Current

60 mins ago

KHZR 270255Z AUTO 15004KT SCT042 SCT049 27/22 A3006 RMK AO2 PWINO
Observed
May-27 @ 02:55 UTC
Wind
  • 150° at 4 KTS
Visibility
Cloud Levels
  • Scattered at 4,200' AGL
  • Scattered at 4,900' AGL
Temperature
27°C / 81°F
Dewpoint
22°C / 72°F
Heat Index
29°C / 85°F
Humidity
74%
Altimeter
30.06" Hg
Pressure
1017.92 hPa
Previous

1 hour ago

KHZR 270237Z AUTO 00000KT BKN044 BKN065 28/22 A3006 RMK AO2 PWINO
Observed
May-27 @ 02:37 UTC
Visibility
Cloud Levels
  • Broken at 4,400' AGL
  • Broken at 6,500' AGL
Temperature
28°C / 82°F
Dewpoint
22°C / 72°F
Heat Index
30°C / 86°F
Humidity
70%
Altimeter
30.06" Hg
Pressure
1017.92 hPa
Previous

2 hours ago

KHZR 270217Z AUTO 00000KT BKN046 BKN050 BKN065 27/23 A3005 RMK AO2 PWINO
Observed
May-27 @ 02:17 UTC
Visibility
Cloud Levels
  • Broken at 4,600' AGL
  • Broken at 5,000' AGL
  • Broken at 6,500' AGL
Temperature
27°C / 81°F
Dewpoint
23°C / 73°F
Heat Index
30°C / 86°F
Humidity
79%
Altimeter
30.05" Hg
Pressure
1017.62 hPa